createdAt,value
2022-10-17T00:01:40.531Z,95.28
2022-10-17T00:08:58.149Z,94.99
2022-10-17T00:12:24.565Z,94.67
2022-10-17T00:19:44.352Z,94.43
2022-10-17T00:23:10.766Z,93.88
2022-10-17T00:26:43.238Z,93.65
2022-10-17T00:30:09.656Z,92.97
2022-10-17T00:37:28.861Z,92.50
2022-10-17T00:44:35.597Z,91.52
2022-10-17T00:48:02.037Z,91.37
2022-10-17T00:55:20.952Z,90.27
2022-10-17T00:58:47.536Z,89.74
2022-10-17T01:05:56.533Z,88.92
2022-10-17T01:09:11.187Z,88.25
2022-10-17T01:49:48.086Z,83.13
2022-10-17T01:52:24.799Z,82.89
2022-10-17T01:54:59.973Z,82.44
2022-10-17T01:57:35.977Z,81.99
2022-10-17T02:00:06.918Z,81.97
2022-10-17T02:02:34.152Z,81.60
2022-10-17T02:05:02.882Z,80.92
2022-10-17T02:12:21.863Z,80.36
2022-10-17T02:15:14.180Z,80.00
2022-10-17T02:18:26.821Z,79.78
2022-10-17T02:21:59.368Z,79.20
2022-10-17T02:25:06.145Z,78.61
2022-10-17T02:28:12.786Z,78.23
2022-10-17T02:35:36.467Z,77.79
2022-10-17T02:39:02.886Z,77.17
2022-10-17T02:46:22.355Z,76.86
2022-10-17T02:49:48.792Z,76.32
2022-10-17T02:53:15.460Z,76.37
2022-10-17T02:55:49.525Z,75.81
2022-10-17T02:59:19.354Z,76.00
2022-10-17T03:06:29.806Z,75.46
2022-10-17T03:09:56.227Z,75.01
2022-10-17T03:13:22.764Z,74.62
2022-10-17T03:16:49.201Z,74.60
2022-10-17T03:20:15.861Z,74.36
2022-10-17T03:23:42.292Z,73.97
2022-10-17T03:30:19.773Z,73.63
2022-10-17T03:33:46.333Z,73.52
2022-10-17T03:41:06.958Z,73.20
2022-10-17T03:44:33.410Z,72.75
2022-10-17T06:04:45.684Z,69.19
2022-10-17T06:07:20.713Z,69.07
2022-10-17T06:09:47.881Z,68.76
2022-10-17T06:12:14.688Z,69.10
2022-10-17T06:14:41.288Z,68.71
2022-10-17T06:17:12.094Z,68.52
2022-10-17T06:19:41.609Z,68.69
2022-10-17T06:22:08.778Z,68.39
2022-10-17T06:24:35.559Z,68.52
2022-10-17T06:27:02.344Z,68.44
2022-10-17T06:29:29.203Z,68.32
2022-10-17T06:31:56.006Z,68.62
2022-10-17T06:34:23.051Z,68.66
2022-10-17T06:36:50.057Z,68.26
2022-10-17T06:39:16.972Z,68.48
2022-10-17T06:41:44.665Z,68.26
2022-10-17T06:44:12.225Z,68.12
2022-10-17T06:46:40.111Z,68.37
2022-10-17T06:49:07.650Z,68.37
2022-10-17T06:51:37.945Z,68.50
2022-10-17T06:54:05.073Z,68.44
2022-10-17T06:56:31.822Z,68.32
2022-10-17T06:58:58.727Z,68.27
2022-10-17T07:01:25.923Z,68.38
2022-10-17T07:03:52.674Z,68.26
2022-10-17T07:06:19.529Z,67.95
2022-10-17T07:08:46.732Z,68.23
2022-10-17T07:11:15.785Z,68.29
2022-10-17T07:13:43.144Z,68.02
2022-10-17T07:16:11.294Z,68.30
2022-10-17T07:18:38.818Z,67.84
2022-10-17T07:21:06.103Z,67.90
2022-10-17T07:23:36.702Z,68.20
2022-10-17T07:26:08.650Z,68.12
2022-10-17T07:28:39.826Z,68.02
2022-10-17T07:31:08.565Z,68.01
2022-10-17T07:33:35.335Z,68.18
2022-10-17T07:36:03.036Z,68.13
2022-10-17T07:38:30.237Z,68.28
2022-10-17T07:41:02.583Z,67.88
2022-10-17T07:43:30.451Z,68.17
2022-10-17T07:45:57.596Z,67.77
2022-10-17T07:48:25.104Z,67.93
2022-10-17T07:50:52.070Z,67.78
2022-10-17T07:53:19.248Z,67.96
2022-10-17T07:55:51.434Z,67.78
2022-10-17T07:58:18.581Z,67.97
2022-10-17T08:00:48.515Z,67.74
2022-10-17T08:03:15.385Z,67.78
2022-10-17T08:05:42.419Z,67.83
2022-10-17T08:08:09.065Z,67.52
2022-10-17T08:10:35.775Z,67.27
2022-10-17T08:13:02.828Z,67.24
2022-10-17T08:15:31.845Z,67.49
2022-10-17T08:17:59.640Z,67.00
2022-10-17T08:20:26.745Z,67.23
2022-10-17T08:22:55.243Z,66.81
2022-10-17T08:25:23.065Z,66.95
2022-10-17T08:27:49.898Z,66.64
2022-10-17T08:30:17.235Z,66.77
2022-10-17T08:32:44.093Z,66.49
2022-10-17T08:35:10.935Z,66.47
2022-10-17T08:37:37.926Z,66.18
2022-10-17T08:40:05.068Z,66.11
2022-10-17T08:42:50.396Z,66.03
2022-10-17T08:45:32.613Z,65.83
2022-10-17T08:48:10.102Z,66.16
2022-10-17T08:50:38.470Z,65.78
2022-10-17T08:53:13.802Z,65.93
2022-10-17T08:55:45.637Z,65.73
2022-10-17T08:58:20.067Z,65.80
2022-10-17T09:01:01.185Z,65.60
2022-10-17T09:03:32.317Z,65.73
2022-10-17T09:06:16.344Z,65.64
2022-10-17T09:09:07.123Z,65.26
2022-10-17T09:11:42.821Z,65.32
2022-10-17T09:14:37.271Z,65.34
2022-10-17T09:17:09.960Z,64.98
2022-10-17T09:19:56.303Z,64.56
2022-10-17T09:22:28.697Z,64.48
2022-10-17T09:25:58.141Z,64.29
2022-10-17T09:29:10.750Z,64.39
2022-10-17T09:31:49.641Z,64.22
2022-10-17T09:34:16.816Z,64.19
2022-10-17T09:36:44.132Z,63.93
2022-10-17T09:40:13.921Z,63.76
2022-10-17T09:43:40.441Z,63.30
2022-10-17T09:46:19.979Z,63.45
2022-10-17T09:49:16.516Z,63.05
2022-10-17T09:51:44.750Z,62.59
2022-10-17T09:54:20.580Z,62.60
2022-10-17T09:57:01.734Z,62.45
2022-10-17T09:59:56.177Z,62.58
2022-10-17T10:02:25.170Z,62.49
2022-10-17T10:05:37.391Z,62.06
2022-10-17T10:09:04.064Z,62.04
2022-10-17T10:11:50.016Z,61.97
2022-10-17T10:14:24.314Z,61.21
2022-10-17T10:16:53.769Z,61.61
2022-10-17T10:19:30.060Z,60.94
2022-10-17T10:22:05.275Z,60.95
2022-10-17T10:24:33.155Z,60.88
2022-10-17T10:27:03.155Z,61.00
2022-10-17T10:29:41.792Z,60.49
2022-10-17T10:32:20.432Z,60.42
2022-10-17T10:35:00.730Z,60.39
2022-10-17T10:37:38.743Z,60.39
2022-10-17T10:40:15.800Z,60.45
2022-10-17T10:42:42.686Z,60.43
2022-10-17T10:45:47.995Z,59.82
2022-10-17T10:48:32.605Z,59.98
2022-10-17T10:51:13.269Z,59.78
2022-10-17T10:53:53.461Z,59.33
2022-10-17T10:56:23.166Z,59.43
2022-10-17T10:59:08.398Z,59.27
2022-10-17T11:02:32.984Z,58.99
2022-10-17T11:05:58.471Z,59.11
2022-10-17T11:08:50.648Z,58.54
2022-10-17T11:11:33.621Z,58.53
2022-10-17T11:14:23.203Z,58.48
2022-10-17T11:17:52.608Z,57.96
2022-10-17T11:21:02.106Z,57.69
2022-10-17T11:24:14.401Z,57.59
2022-10-17T11:27:41.235Z,57.14
2022-10-17T11:31:08.108Z,56.85
2022-10-17T11:34:29.852Z,56.77
2022-10-17T11:37:56.287Z,56.64
2022-10-17T11:44:39.130Z,56.04
2022-10-17T11:47:35.135Z,56.35
2022-10-17T11:54:16.920Z,56.09
2022-10-17T11:57:29.531Z,56.23
2022-10-17T12:00:42.752Z,56.07
2022-10-17T12:04:08.408Z,56.34
2022-10-17T12:07:30.563Z,56.13
2022-10-17T12:10:40.320Z,56.21
2022-10-17T12:13:48.934Z,56.36
2022-10-17T14:50:32.167Z,36.40
2022-10-17T14:53:12.270Z,36.55
2022-10-17T14:56:38.894Z,37.00
2022-10-17T15:02:49.735Z,38.23
2022-10-17T15:05:17.081Z,38.85
2022-10-17T15:07:44.088Z,39.22
2022-10-17T15:10:43.294Z,39.29
2022-10-17T15:13:28.529Z,39.89
2022-10-17T15:15:57.070Z,40.20
2022-10-17T15:18:23.877Z,40.33
2022-10-17T15:20:59.475Z,40.53
2022-10-17T15:23:32.449Z,40.96
2022-10-17T15:25:59.128Z,41.38
2022-10-17T15:28:27.392Z,41.81
2022-10-17T15:30:54.338Z,41.97
2022-10-17T15:33:20.962Z,42.35
2022-10-17T15:35:47.979Z,42.26
2022-10-17T15:38:18.446Z,42.53
2022-10-17T15:40:48.910Z,43.06
2022-10-17T15:43:19.647Z,43.07
2022-10-17T15:45:46.955Z,43.38
2022-10-17T15:48:27.778Z,43.59
2022-10-17T15:50:54.591Z,44.14
2022-10-17T15:53:21.346Z,44.48
2022-10-17T15:55:50.966Z,44.38
2022-10-17T15:58:19.695Z,44.54
2022-10-17T16:00:47.125Z,44.63
2022-10-17T16:03:14.394Z,44.93
2022-10-17T16:05:41.296Z,45.48
2022-10-17T16:08:08.100Z,45.70
2022-10-17T16:10:37.286Z,45.63
2022-10-17T16:13:04.113Z,46.13
2022-10-17T16:15:30.899Z,46.52
2022-10-17T16:18:00.524Z,46.62
2022-10-17T16:20:29.667Z,46.88
2022-10-17T16:22:59.992Z,46.67
2022-10-17T16:25:29.013Z,47.00
2022-10-17T16:27:58.351Z,47.50
2022-10-17T16:30:27.524Z,47.41
2022-10-17T16:32:55.584Z,47.52
2022-10-17T16:35:33.290Z,48.19
2022-10-17T16:38:03.641Z,48.19
2022-10-17T16:40:30.447Z,48.05
2022-10-17T16:42:57.150Z,48.38
2022-10-17T16:45:23.897Z,48.80
2022-10-17T16:47:50.867Z,49.07
2022-10-17T16:50:18.646Z,49.25
2022-10-17T16:52:45.628Z,49.45
2022-10-17T16:55:12.413Z,49.32
2022-10-17T16:57:39.138Z,49.67
2022-10-17T17:00:26.529Z,49.97
2022-10-17T17:02:53.643Z,49.95
2022-10-17T17:05:20.268Z,50.40
2022-10-17T17:07:48.222Z,50.33
2022-10-17T17:10:15.031Z,50.48
2022-10-17T17:12:41.663Z,50.78
2022-10-17T17:15:08.763Z,51.22
2022-10-17T17:17:54.873Z,51.48
2022-10-17T17:20:22.281Z,51.54
2022-10-17T17:22:50.937Z,51.85
2022-10-17T17:25:17.677Z,52.05
2022-10-17T17:27:44.628Z,52.13
2022-10-17T17:30:11.795Z,52.52
2022-10-17T17:32:38.529Z,52.39
2022-10-17T17:35:06.125Z,52.84
2022-10-17T17:37:33.063Z,53.12
2022-10-17T17:39:59.948Z,52.97
2022-10-17T17:42:26.938Z,53.19
2022-10-17T17:44:53.623Z,53.56
2022-10-17T17:47:20.539Z,53.75
2022-10-17T17:52:45.704Z,54.02
2022-10-17T17:55:12.870Z,54.15
2022-10-17T17:57:39.539Z,54.74
2022-10-17T18:00:07.218Z,54.60
2022-10-17T18:02:34.026Z,54.91
2022-10-17T18:05:00.703Z,54.99
2022-10-17T18:07:28.090Z,55.39
2022-10-17T18:09:55.744Z,55.25
2022-10-17T18:12:22.921Z,55.51
2022-10-17T18:14:49.912Z,55.79
2022-10-17T18:17:16.606Z,55.67
2022-10-17T18:19:43.306Z,55.78
2022-10-17T18:22:11.023Z,56.14
2022-10-17T18:24:37.701Z,56.40
2022-10-17T18:27:04.543Z,56.57
2022-10-17T18:29:32.928Z,56.55
2022-10-17T18:32:00.101Z,56.91
2022-10-17T18:34:27.377Z,56.83
2022-10-17T18:36:54.827Z,57.19
2022-10-17T18:39:21.687Z,57.39
2022-10-17T18:41:48.327Z,57.61
2022-10-17T18:44:15.988Z,57.61
2022-10-17T18:46:43.138Z,57.62
2022-10-17T18:49:11.768Z,57.51
2022-10-17T18:51:39.015Z,58.06
2022-10-17T18:54:11.343Z,57.97
2022-10-17T18:56:38.285Z,58.31
2022-10-17T18:59:05.769Z,58.18
2022-10-17T19:01:32.483Z,58.42
2022-10-17T19:03:59.702Z,58.73
2022-10-17T19:06:32.188Z,59.02
2022-10-17T19:09:00.793Z,58.88
2022-10-17T19:11:29.038Z,59.33
2022-10-17T19:14:01.060Z,59.37
2022-10-17T19:16:37.297Z,59.69
2022-10-17T19:19:11.530Z,59.83
2022-10-17T19:21:38.373Z,59.75
2022-10-17T19:24:07.353Z,60.16
2022-10-17T19:26:36.135Z,60.46
2022-10-17T19:29:04.325Z,60.61
2022-10-17T19:31:31.851Z,60.38
2022-10-17T19:33:59.633Z,60.63
2022-10-17T19:36:32.277Z,61.01
2022-10-17T19:39:03.736Z,60.99
2022-10-17T19:41:30.958Z,61.21
2022-10-17T19:43:58.372Z,61.53
2022-10-17T19:46:27.220Z,61.76
2022-10-17T19:48:53.952Z,61.56
2022-10-17T19:51:24.588Z,61.88
2022-10-17T19:53:53.535Z,62.15
2022-10-17T19:56:22.483Z,62.06
2022-10-17T19:58:50.309Z,62.51
2022-10-17T20:01:20.334Z,62.59
2022-10-17T20:03:47.600Z,62.72
2022-10-17T20:06:14.776Z,62.63
2022-10-17T20:08:42.114Z,62.89
2022-10-17T20:11:13.394Z,62.79
2022-10-17T20:13:40.841Z,63.03
2022-10-17T20:16:10.972Z,63.32
2022-10-17T20:18:38.363Z,63.50
2022-10-17T20:21:07.957Z,63.65
2022-10-17T20:23:34.857Z,64.00
2022-10-17T20:26:08.129Z,64.22
2022-10-17T20:28:47.286Z,64.50
2022-10-17T20:31:14.930Z,64.64
2022-10-17T20:33:41.844Z,64.63
2022-10-17T20:36:10.752Z,64.93
2022-10-17T20:38:37.761Z,65.04
2022-10-17T20:41:06.840Z,65.13
2022-10-17T20:43:34.747Z,65.70
2022-10-17T20:46:09.809Z,65.49
2022-10-17T20:48:53.455Z,66.21
2022-10-17T20:51:21.137Z,66.39
2022-10-17T20:53:48.469Z,66.26
2022-10-17T20:56:22.515Z,66.69
2022-10-17T20:59:00.418Z,66.56
2022-10-17T21:01:28.430Z,66.82
2022-10-17T21:04:54.953Z,67.15
2022-10-17T21:08:21.622Z,67.28
2022-10-17T21:11:48.121Z,67.22
2022-10-17T21:15:14.947Z,67.68
2022-10-17T21:22:25.957Z,68.23
2022-10-17T21:25:52.379Z,68.52
2022-10-17T21:29:19.256Z,68.78
2022-10-17T21:32:53.227Z,68.67
2022-10-17T21:40:14.394Z,69.46
2022-10-17T21:43:40.849Z,69.72
2022-10-17T21:49:58.950Z,70.34
2022-10-17T21:53:25.506Z,70.39
2022-10-17T21:56:52.095Z,70.39
2022-10-17T22:04:00.444Z,71.00
2022-10-17T22:07:26.987Z,71.27
2022-10-17T22:10:53.962Z,71.11
2022-10-17T22:13:22.580Z,71.55
2022-10-17T22:15:49.287Z,71.57
2022-10-17T22:19:15.991Z,71.67
2022-10-17T22:26:35.525Z,72.01
2022-10-17T22:32:46.948Z,72.53
2022-10-17T22:36:13.395Z,72.57
2022-10-17T22:39:39.971Z,72.68
2022-10-17T22:43:17.537Z,73.10
2022-10-17T22:46:44.235Z,73.13
2022-10-17T22:50:10.608Z,73.10
2022-10-17T22:53:37.191Z,73.14
2022-10-17T22:57:03.628Z,73.52
2022-10-17T23:04:23.978Z,73.90
2022-10-17T23:07:50.387Z,73.99
2022-10-17T23:10:17.228Z,73.98
2022-10-17T23:12:43.957Z,74.08
2022-10-17T23:15:10.756Z,74.13
2022-10-17T23:17:37.618Z,74.09
2022-10-17T23:20:04.581Z,74.05
2022-10-17T23:22:31.502Z,73.92
2022-10-17T23:24:58.676Z,74.12
2022-10-17T23:27:25.360Z,73.92
2022-10-17T23:29:52.037Z,73.84
2022-10-17T23:32:20.894Z,74.17
2022-10-17T23:34:47.633Z,74.36
2022-10-17T23:37:14.238Z,74.09
2022-10-17T23:39:43.564Z,74.16
2022-10-17T23:42:10.209Z,74.18
2022-10-17T23:44:36.890Z,74.33
2022-10-17T23:47:03.732Z,74.13
2022-10-17T23:49:30.443Z,74.36
2022-10-17T23:51:57.096Z,74.49
2022-10-17T23:54:23.960Z,74.44
2022-10-17T23:56:50.630Z,74.58
2022-10-17T23:59:17.373Z,74.35
